This is the latest recevied weather packets stored in our database for station/object p43g-13. If no packets are shown the sender has not sent any weather packets the latest 10 day(s).
| Time | Temp. | Humidity | Pressure | Rain* | Wind** | Luminosity | Snow |
|---|---|---|---|---|---|---|---|
| 1787421375 | 31.67° C | 71% | 1011.1 hPa | 0 mm | - | 764 W/m² | - |
| 1787421075 | 31.67° C | 71% | 1011.3 hPa | 0 mm | - | 898 W/m² | - |
| 1787420775 | 31.67° C | 71% | 1011.5 hPa | 0 mm | - | 909 W/m² | - |
| 1787420475 | 31.67° C | 69% | 1011.5 hPa | 0 mm | - | 900 W/m² | - |
| 1787420175 | 31.67° C | 70% | 1011.7 hPa | 0 mm | - | 908 W/m² | - |
| 1787419875 | 31.67° C | 69% | 1011.6 hPa | 0 mm | - | 926 W/m² | - |
| 1787419577 | 31.11° C | 74% | 1011.8 hPa | 0 mm | - | 914 W/m² | - |
| 1787419275 | 31.11° C | 76% | 1012.1 hPa | 0 mm | - | 925 W/m² | - |
| 1787418976 | 31.11° C | 76% | 1012.1 hPa | 0 mm | - | 1088 W/m² | - |
| 1787418675 | 31.11° C | 76% | 1012.2 hPa | 0 mm | - | 414 W/m² | - |
| 1787418375 | 31.11° C | 76% | 1012.5 hPa | 0 mm | - | 1027 W/m² | - |
| 1787418075 | 32.78° C | 73% | 1012.6 hPa | 0 mm | - | 328 W/m² | - |
| 1787417775 | 31.67° C | 74% | 1012.6 hPa | 0 mm | - | 1085 W/m² | - |
| 1787417475 | 32.22° C | 72% | 1012.5 hPa | 0 mm | - | 1132 W/m² | - |
| 1787417175 | 32.22° C | 74% | 1012.5 hPa | 0 mm | - | 1174 W/m² | - |
| 1787416875 | 32.22° C | 71% | 1012.7 hPa | 0 mm | - | 564 W/m² | - |
| 1787416575 | 31.67° C | 73% | 1012.6 hPa | 0 mm | - | 815 W/m² | - |
| 1787416274 | 30.56° C | 76% | 1012.8 hPa | 0 mm | - | 639 W/m² | - |
| 1787415975 | 30.56° C | 77% | 1012.9 hPa | 0 mm | - | 980 W/m² | - |
| 1787415674 | 30.56° C | 78% | 1013 hPa | 0 mm | - | 460 W/m² | - |
| 1787415378 | 31.11° C | 76% | 1013 hPa | 0 mm | - | 539 W/m² | - |
| 1787415075 | 31.11° C | 77% | 1013.1 hPa | 0 mm | - | 548 W/m² | - |
| 1787414775 | 30.56° C | 77% | 1013.1 hPa | 0 mm | - | 417 W/m² | - |
| 1787414475 | 30.56° C | 76% | 1013 hPa | 0 mm | - | 318 W/m² | - |
| 1787414175 | 30.56° C | 76% | 1012.9 hPa | 0 mm | - | 393 W/m² | - |
* Rain latest hour (hover to see other rain measurements)
** Current wind speed in m/s (hover to see current wind gust speed)